Terminal Aerodrome Forecast
Issued by NWS

Home | Current Version | Previous Version | Text Only | Print | Product List | Glossary On
Versions: 1 2 3 4 5 6 7 8 9 10 11 12 13 14 15 16 17 18 19 20 21 22 23 24 25 26 27 28 29 30 31 32 33 34 35 36 37 38 39 40 41 42
875
FTUS45 KSLC 161433 AAA
TAFPVU
TAF AMD
KPVU 161433Z 1615/1712 VRB03KT 6SM -SN BR BKN010 OVC029
      TEMPO 1615/1617 P6SM NSW SCT010 OVC035
     FM161700 VRB03KT P6SM OVC035=

USA.gov is the U.S. government's official web portal to all federal, state and local government web resources and services.